Mount Zion, IL (62549)

2:51 AM CST on December 27, 2014 (GMT -0600)
Sandhill Dr. | Change Station
CLOSE
Current Station
Personal Weather Station
Location: Decatur, IL
Elevation: 676 ft
Nearby Weather Stations

Elev 676 ft 39.82 °N, 88.92 °W | Updated 3 seconds ago

Overcast
Overcast
45.7 °F
Feels Like 41 °F
N
9.5
Wind Variable Wind from South
Gusts 9.8 mph

Today
High -- | Low -- °F
--% Chance of Precip.
Yesterday
High -- | Low -- °F
Precip. -- in
7:15 AM 4:37 PM
Waxing Crescent, 34% visible
Pressure 30.07 in
Visibility 9.0 miles
Clouds Overcast 700 ft
Windchill 41 °F
Dew Point 45 °F
Humidity 96%
Rainfall 0.07 in
Snow Depth Not available.
UV 0 out of 12
Pollen .10 out of 12
Air Quality Not available.
Flu Activity Not available.
METAR KDEC 270754Z AUTO 20012KT 9SM OVC007 08/07 A3006 RMK AO2 RAE34 CIG 006V011 SLP181 P0000 T00780067 TSNO

More Conditions Fewer Conditions

Pressure 30.07 in
Visibility 9.0 miles
Clouds Overcast 700 ft
Windchill 41 °F
Dew Point 45 °F
Humidity 96%
Rainfall 0.07 in
Snow Depth Not available.
UV 0 out of 12
Pollen .10 out of 12
Air Quality Not available.
Flu Activity Not available.
METAR KDEC 270754Z AUTO 20012KT 9SM OVC007 08/07 A3006 RMK AO2 RAE34 CIG 006V011 SLP181 P0000 T00780067 TSNO

More Conditions Fewer Conditions

10-Day Weather Forecast

Almanac

Astronomy

Dec. 27, 2014 Rise Set
Actual Time
Civil Twilight
Nautical Twilight
Astronomical Twilight
Moon
Length of Visible Light
Length of Day
Tomorrow will be .
, % of the Moon is Illuminated

Today's Extremes

State Highs State Lows

Community

WunderPhotos

Upload Photos

1,780,863 photos uploaded!

WunderBlogs® & News

Nearby

Air Quality

  Air Quality AQ Index Pollutant
Not available.

Snow Depth

Station Depth Elevation

Earthquake Activity

City Distance Mag. Time & Date
Minimum magnitude displayed is 2.5.

Coastal Water Temperatures

Place Temperature

Nearby Weather Stations